KAXN

Chandler Field Airport

Alexandria, Minnesota, USA
METAR KAXN 190553Z AUTO 05008KT 10SM OVC100 M18/M26 A3038 RMK AO2 SLP330 T11831261 11167 21183 411331183 51006
Observed Flight Rules
Jan-19 @ 05:53 UTC (29 minutes ago) Visual Flight Rules
Wind Visibility Clouds
50° at 8 knots 10 miles
  • Overcast at 10,000' AGL
Temperatures Readings
Current -18°C / -0°F
Dewpoint -26°C / -15°F
Humidity 50%
Altimeter 30.38" Hg
Pressure 1033 hPa
Elevation 433
METAR KAXN 190553Z AUTO 05008KT 10SM OVC100 M18/M26 A3038 RMK AO2 SLP330 T11831261 11167 21183 411331183 51006
Observed Flight Rules
Jan-19 @ 05:53 UTC
(29 minutes ago)
VFR
Wind Visibility
50° at 8 knots 10 miles
Clouds
  • Overcast at 10,000' AGL
Temperature Dewpoint
-18°C / -0°F -26°C / -15°F
Humidity Altimeter Pressure
50% 30.38" Hg 1033 hPa